createdAt,value
2022-07-30T00:00:53.511Z,96164.69
2022-07-30T00:03:21.151Z,96164.00
2022-07-30T00:05:49.510Z,96174.34
2022-07-30T00:08:17.002Z,96164.78
2022-07-30T00:10:45.887Z,96157.41
2022-07-30T00:13:14.331Z,96162.72
2022-07-30T00:15:42.237Z,96160.22
2022-07-30T00:18:09.725Z,96160.50
2022-07-30T00:20:40.658Z,96163.63
2022-07-30T00:23:11.777Z,96167.06
2022-07-30T00:25:39.358Z,96150.41
2022-07-30T00:28:08.184Z,96145.25
2022-07-30T00:30:35.691Z,96147.28
2022-07-30T00:33:03.306Z,96157.00
2022-07-30T00:35:31.092Z,96149.22
2022-07-30T00:37:58.567Z,96143.66
2022-07-30T00:40:26.074Z,96144.75
2022-07-30T00:42:53.569Z,96136.63
2022-07-30T00:45:22.379Z,96141.94
2022-07-30T00:47:49.937Z,96142.94
2022-07-30T00:50:17.984Z,96144.69
2022-07-30T00:52:46.636Z,96145.66
2022-07-30T00:55:15.934Z,96152.38
2022-07-30T00:57:44.057Z,96144.03
2022-07-30T01:00:15.262Z,96146.28
2022-07-30T01:02:44.120Z,96144.28
2022-07-30T01:05:12.334Z,96140.56
2022-07-30T01:07:39.841Z,96136.63
2022-07-30T01:10:10.905Z,96146.78
2022-07-30T01:12:39.364Z,96147.00
2022-07-30T01:15:09.416Z,96135.66
2022-07-30T01:17:37.186Z,96138.69
2022-07-30T01:20:10.424Z,96135.91
2022-07-30T01:22:48.904Z,96137.06
2022-07-30T01:25:23.605Z,96136.31
2022-07-30T01:27:59.245Z,96139.94
2022-07-30T01:30:30.936Z,96150.56
2022-07-30T01:33:00.663Z,96140.00
2022-07-30T01:35:31.701Z,96145.06
2022-07-30T01:38:01.523Z,96135.75
2022-07-30T01:40:30.281Z,96139.31
2022-07-30T01:43:01.678Z,96142.13
2022-07-30T01:45:30.990Z,96143.09
2022-07-30T01:48:04.161Z,96157.75
2022-07-30T01:50:33.438Z,96151.19
2022-07-30T01:53:01.749Z,96149.59
2022-07-30T01:55:35.920Z,96152.72
2022-07-30T01:58:07.221Z,96147.81
2022-07-30T02:00:39.053Z,96144.38
2022-07-30T02:03:08.706Z,96143.63
2022-07-30T02:05:38.047Z,96139.94
2022-07-30T02:08:12.068Z,96153.63
2022-07-30T02:10:44.947Z,96147.47
2022-07-30T02:13:18.758Z,96151.75
2022-07-30T02:15:50.958Z,96139.75
2022-07-30T02:18:23.872Z,96152.88
2022-07-30T02:21:07.623Z,96152.03
2022-07-30T02:23:43.332Z,96161.97
2022-07-30T02:26:15.966Z,96153.09
2022-07-30T02:28:46.711Z,96154.16
2022-07-30T02:31:18.561Z,96158.91
2022-07-30T02:33:50.273Z,96155.78
2022-07-30T02:36:19.278Z,96150.41
2022-07-30T02:38:50.649Z,96152.69
2022-07-30T02:41:19.974Z,96144.41
2022-07-30T02:43:50.448Z,96143.38
2022-07-30T02:46:20.042Z,96140.69
2022-07-30T02:48:50.093Z,96142.56
2022-07-30T02:51:19.844Z,96144.84
2022-07-30T02:53:51.836Z,96145.50
2022-07-30T02:56:22.156Z,96136.41
2022-07-30T02:58:54.077Z,96142.59
2022-07-30T03:01:23.966Z,96144.66
2022-07-30T03:03:53.085Z,96136.00
2022-07-30T03:06:22.020Z,96138.47
2022-07-30T03:08:49.824Z,96139.69
2022-07-30T03:11:20.189Z,96141.75
2022-07-30T03:13:48.291Z,96140.72
2022-07-30T03:16:19.660Z,96136.41
2022-07-30T03:18:49.312Z,96143.59
2022-07-30T03:21:18.384Z,96147.53
2022-07-30T03:23:48.815Z,96147.13
2022-07-30T03:26:20.463Z,96154.78
2022-07-30T03:28:48.584Z,96144.66
2022-07-30T03:31:18.943Z,96146.69
2022-07-30T03:33:47.418Z,96143.00
2022-07-30T03:36:15.855Z,96155.00
2022-07-30T03:38:44.851Z,96148.34
2022-07-30T03:41:12.851Z,96149.81
2022-07-30T03:43:41.342Z,96149.59
2022-07-30T03:46:11.871Z,96146.69
2022-07-30T03:48:41.732Z,96161.75
2022-07-30T03:51:10.255Z,96156.97
2022-07-30T03:53:38.646Z,96155.72
2022-07-30T03:56:06.667Z,96164.91
2022-07-30T03:58:35.992Z,96163.44
2022-07-30T04:01:03.914Z,96159.59
2022-07-30T04:03:33.645Z,96162.06
2022-07-30T04:06:02.723Z,96167.03
2022-07-30T04:08:30.219Z,96168.50
2022-07-30T04:10:58.368Z,96168.13
2022-07-30T04:13:25.859Z,96169.38
2022-07-30T04:16:05.123Z,96170.56
2022-07-30T04:18:51.353Z,96168.81
2022-07-30T04:21:23.454Z,96168.34
2022-07-30T04:24:03.725Z,96170.50
2022-07-30T04:26:32.859Z,96176.09
2022-07-30T04:29:01.668Z,96188.78
2022-07-30T04:31:30.593Z,96181.31
2022-07-30T04:34:02.754Z,96189.22
2022-07-30T04:36:34.676Z,96188.78
2022-07-30T04:39:02.767Z,96187.56
2022-07-30T04:41:35.355Z,96191.75
2022-07-30T04:44:16.892Z,96192.09
2022-07-30T04:46:44.497Z,96193.06
2022-07-30T04:49:13.495Z,96198.22
2022-07-30T04:51:43.658Z,96195.56
2022-07-30T04:54:15.287Z,96199.00
2022-07-30T04:56:53.136Z,96196.16
2022-07-30T04:59:24.524Z,96199.16
2022-07-30T05:01:52.756Z,96201.34
2022-07-30T05:04:22.395Z,96201.38
2022-07-30T05:06:51.669Z,96200.84
2022-07-30T05:09:19.792Z,96205.94
2022-07-30T05:11:52.092Z,96194.03
2022-07-30T05:14:20.893Z,96197.94
2022-07-30T05:16:48.714Z,96200.91
2022-07-30T05:19:16.389Z,96201.22
2022-07-30T05:21:43.885Z,96201.63
2022-07-30T05:24:13.140Z,96200.75
2022-07-30T05:26:41.414Z,96203.69
2022-07-30T05:29:08.966Z,96203.63
2022-07-30T05:31:38.044Z,96205.22
2022-07-30T05:34:05.890Z,96206.00
2022-07-30T05:36:33.638Z,96202.44
2022-07-30T05:39:01.271Z,96202.75
2022-07-30T05:41:32.129Z,96205.31
2022-07-30T05:44:00.893Z,96201.16
2022-07-30T05:46:28.964Z,96199.28
2022-07-30T05:48:56.526Z,96195.97
2022-07-30T05:51:24.124Z,96202.25
2022-07-30T05:53:51.755Z,96204.69
2022-07-30T05:56:19.282Z,96199.22
2022-07-30T05:58:48.111Z,96193.28
2022-07-30T06:01:15.677Z,96195.38
2022-07-30T06:03:43.224Z,96192.88
2022-07-30T06:06:10.820Z,96201.00
2022-07-30T06:08:38.684Z,96200.78
2022-07-30T06:11:08.757Z,96200.97
2022-07-30T06:13:36.424Z,96210.38
2022-07-30T06:16:06.158Z,96210.19
2022-07-30T06:18:33.788Z,96211.22
2022-07-30T06:21:01.324Z,96212.22
2022-07-30T06:23:28.880Z,96210.59
2022-07-30T06:25:56.387Z,96211.19
2022-07-30T06:28:39.739Z,96216.78
2022-07-30T06:31:08.899Z,96224.59
2022-07-30T06:33:36.456Z,96231.72
2022-07-30T06:36:04.056Z,96233.91
2022-07-30T06:38:31.676Z,96240.69
2022-07-30T06:41:02.815Z,96248.81
2022-07-30T06:43:31.974Z,96247.38
2022-07-30T06:45:59.517Z,96244.22
2022-07-30T06:48:28.391Z,96247.72
2022-07-30T06:50:55.967Z,96251.34
2022-07-30T06:53:23.733Z,96252.88
2022-07-30T06:55:51.305Z,96248.03
2022-07-30T06:58:25.679Z,96259.50
2022-07-30T07:00:53.638Z,96260.13
2022-07-30T07:03:21.371Z,96246.50
2022-07-30T07:05:50.265Z,96256.38
2022-07-30T07:08:18.440Z,96253.75
2022-07-30T07:10:45.929Z,96262.59
2022-07-30T07:13:13.567Z,96252.06
2022-07-30T07:15:41.143Z,96246.78
2022-07-30T07:18:09.020Z,96247.88
2022-07-30T07:20:36.517Z,96240.50
2022-07-30T07:23:09.364Z,96248.09
2022-07-30T07:25:39.778Z,96248.22
2022-07-30T07:28:11.993Z,96248.63
2022-07-30T07:30:41.149Z,96248.25
2022-07-30T07:33:08.773Z,96257.53
2022-07-30T07:35:49.074Z,96262.69
2022-07-30T07:38:18.669Z,96268.66
2022-07-30T07:40:46.384Z,96258.69
2022-07-30T07:43:14.544Z,96261.88
2022-07-30T07:45:42.515Z,96246.47
2022-07-30T07:48:10.068Z,96248.56
2022-07-30T07:50:37.654Z,96248.09
2022-07-30T07:53:05.448Z,96250.75
2022-07-30T07:55:34.315Z,96255.47
2022-07-30T07:58:01.906Z,96247.03
2022-07-30T08:00:29.858Z,96254.66
2022-07-30T08:02:57.643Z,96256.16
2022-07-30T08:05:59.051Z,96256.00
2022-07-30T08:08:13.771Z,96254.06
2022-07-30T08:10:42.579Z,96248.78
2022-07-30T08:13:49.335Z,96272.00
2022-07-30T08:15:57.490Z,96271.19
2022-07-30T08:18:24.975Z,96274.72
2022-07-30T08:20:52.436Z,96280.28
2022-07-30T08:23:22.172Z,96268.34
2022-07-30T08:25:51.046Z,96271.38
2022-07-30T08:28:35.415Z,96269.69
2022-07-30T08:31:03.828Z,96281.50
2022-07-30T08:33:31.364Z,96285.13
2022-07-30T08:35:59.431Z,96280.06
2022-07-30T08:38:36.907Z,96285.75
2022-07-30T08:41:05.766Z,96292.31
2022-07-30T08:43:36.193Z,96291.22
2022-07-30T08:46:08.881Z,96280.75
2022-07-30T08:48:37.092Z,96292.91
2022-07-30T08:51:04.917Z,96283.91
2022-07-30T08:53:34.477Z,96286.44
2022-07-30T08:56:02.359Z,96277.59
2022-07-30T08:58:35.025Z,96289.91
2022-07-30T09:01:03.014Z,96282.16
2022-07-30T09:03:30.668Z,96285.38
2022-07-30T09:05:58.280Z,96282.25
2022-07-30T09:08:26.333Z,96286.31
2022-07-30T09:10:53.841Z,96283.81
2022-07-30T09:13:26.251Z,96278.81
2022-07-30T09:15:56.635Z,96286.03
2022-07-30T09:18:29.170Z,96288.56
2022-07-30T09:20:57.087Z,96288.00
2022-07-30T09:23:24.572Z,96279.38
2022-07-30T09:25:52.363Z,96283.09
2022-07-30T09:28:30.018Z,96288.91
2022-07-30T09:30:59.077Z,96286.94
2022-07-30T09:33:37.810Z,96287.84
2022-07-30T09:36:07.125Z,96294.41
2022-07-30T09:38:47.549Z,96290.72
2022-07-30T09:41:37.263Z,96296.66
2022-07-30T09:44:05.349Z,96296.53
2022-07-30T09:46:45.262Z,96306.81
2022-07-30T09:49:16.857Z,96291.25
2022-07-30T09:54:51.001Z,96297.97
2022-07-30T09:57:25.555Z,96291.22
2022-07-30T09:59:55.197Z,96291.31
2022-07-30T10:02:31.990Z,96296.75
2022-07-30T10:05:10.576Z,96303.84
2022-07-30T10:07:48.946Z,96293.00
2022-07-30T10:10:20.868Z,96302.06
2022-07-30T10:12:51.815Z,96292.81
2022-07-30T10:15:21.139Z,96287.44
2022-07-30T10:17:50.382Z,96289.72
2022-07-30T10:20:18.792Z,96291.13
2022-07-30T10:22:50.134Z,96286.44
2022-07-30T10:25:20.914Z,96284.72
2022-07-30T10:27:57.867Z,96276.59
2022-07-30T10:30:27.814Z,96286.56
2022-07-30T10:32:58.127Z,96270.94
2022-07-30T10:35:31.471Z,96272.81
2022-07-30T10:38:13.944Z,96267.72
2022-07-30T10:40:48.580Z,96254.75
2022-07-30T10:43:42.586Z,96266.75
2022-07-30T10:46:23.595Z,96260.31
2022-07-30T10:48:52.493Z,96258.56
2022-07-30T10:51:34.286Z,96256.41
2022-07-30T10:54:02.206Z,96264.19
2022-07-30T10:56:30.040Z,96251.72
2022-07-30T10:59:07.914Z,96255.69
2022-07-30T11:02:10.167Z,96260.84
2022-07-30T11:04:39.648Z,96260.25
2022-07-30T11:07:31.260Z,96258.41
2022-07-30T11:10:05.212Z,96258.28
2022-07-30T11:12:56.756Z,96255.66
2022-07-30T11:15:24.724Z,96253.16
2022-07-30T11:18:12.074Z,96256.56
2022-07-30T11:20:48.862Z,96251.50
2022-07-30T11:23:39.208Z,96255.31
2022-07-30T11:26:07.198Z,96243.94
2022-07-30T11:28:36.653Z,96247.56
2022-07-30T11:31:10.090Z,96250.84
2022-07-30T11:33:38.126Z,96241.66
2022-07-30T11:36:11.969Z,96244.56
2022-07-30T11:39:00.093Z,96252.13
2022-07-30T11:41:34.534Z,96244.63
2022-07-30T11:44:27.692Z,96246.84
2022-07-30T11:46:55.530Z,96249.16
2022-07-30T11:49:23.117Z,96255.72
2022-07-30T11:51:51.993Z,96254.88
2022-07-30T11:54:19.612Z,96255.88
2022-07-30T11:56:51.778Z,96254.41
2022-07-30T11:59:19.473Z,96246.97
2022-07-30T12:01:50.987Z,96256.72
2022-07-30T12:04:18.534Z,96249.78
2022-07-30T12:06:47.005Z,96249.56
2022-07-30T12:09:22.419Z,96260.22
2022-07-30T12:11:50.273Z,96254.16
2022-07-30T12:14:17.796Z,96262.84
2022-07-30T12:16:51.089Z,96269.81
2022-07-30T12:19:18.578Z,96275.22
2022-07-30T12:21:49.591Z,96270.63
2022-07-30T12:24:25.707Z,96279.41
2022-07-30T12:26:53.178Z,96269.22
2022-07-30T12:29:20.875Z,96272.09
2022-07-30T12:31:48.439Z,96279.53
2022-07-30T12:34:23.032Z,96285.09
2022-07-30T12:36:50.906Z,96275.63
2022-07-30T12:39:24.697Z,96276.53
2022-07-30T12:41:55.916Z,96282.75
2022-07-30T12:44:39.405Z,96285.28
2022-07-30T12:47:19.929Z,96280.44
2022-07-30T12:49:49.618Z,96284.84
2022-07-30T12:52:27.874Z,96286.69
2022-07-30T12:55:07.396Z,96277.63
2022-07-30T12:58:01.779Z,96276.53
2022-07-30T13:00:36.026Z,96272.81
2022-07-30T13:03:03.572Z,96255.19
2022-07-30T13:05:47.530Z,96272.50
2022-07-30T13:08:15.372Z,96273.06
2022-07-30T13:10:57.238Z,96281.97
2022-07-30T13:13:26.985Z,96281.34
2022-07-30T13:16:01.772Z,96291.84
2022-07-30T13:18:30.059Z,96291.19
2022-07-30T13:20:57.932Z,96289.03
2022-07-30T13:23:25.938Z,96281.06
2022-07-30T13:25:53.604Z,96290.94
2022-07-30T13:28:22.886Z,96278.25
2022-07-30T13:30:50.620Z,96279.88
2022-07-30T13:33:18.838Z,96277.78
2022-07-30T13:35:46.302Z,96268.75
2022-07-30T13:38:15.494Z,96259.34
2022-07-30T13:40:42.991Z,96264.59
2022-07-30T13:43:10.618Z,96260.81
2022-07-30T13:45:39.463Z,96260.94
2022-07-30T13:48:07.399Z,96254.13
2022-07-30T13:50:34.969Z,96265.06
2022-07-30T13:53:02.862Z,96263.03
2022-07-30T13:55:30.427Z,96263.88
2022-07-30T13:57:58.740Z,96267.47
2022-07-30T14:00:32.172Z,96258.44
2022-07-30T14:03:02.077Z,96272.44
2022-07-30T14:05:29.561Z,96283.69
2022-07-30T14:07:57.108Z,96281.41
2022-07-30T14:10:24.647Z,96271.31
2022-07-30T14:12:54.939Z,96281.66
2022-07-30T14:15:23.033Z,96284.31
2022-07-30T14:17:56.047Z,96301.47
2022-07-30T14:20:28.872Z,96302.41
2022-07-30T14:22:56.800Z,96297.16
2022-07-30T14:25:24.478Z,96275.69
2022-07-30T14:27:52.245Z,96292.66
2022-07-30T14:30:20.181Z,96281.94
2022-07-30T14:32:48.134Z,96283.66
2022-07-30T14:35:15.615Z,96279.44
2022-07-30T14:37:44.416Z,96280.94
2022-07-30T14:40:13.130Z,96274.72
2022-07-30T14:42:40.840Z,96270.31
2022-07-30T14:45:10.131Z,96272.41
2022-07-30T14:47:37.683Z,96270.28
2022-07-30T14:50:05.887Z,96269.28
2022-07-30T14:52:34.936Z,96281.72
2022-07-30T14:55:04.136Z,96280.53
2022-07-30T14:57:34.346Z,96284.66
2022-07-30T15:00:02.336Z,96282.44
2022-07-30T15:02:30.088Z,96281.47
2022-07-30T15:04:57.742Z,96279.63
2022-07-30T15:07:25.196Z,96277.41
2022-07-30T15:09:52.669Z,96275.91
2022-07-30T15:12:26.946Z,96284.25
2022-07-30T15:14:54.873Z,96282.75
2022-07-30T15:17:23.052Z,96282.38
2022-07-30T15:19:51.555Z,96273.25
2022-07-30T15:22:19.874Z,96275.97
2022-07-30T15:24:47.414Z,96267.69
2022-07-30T15:27:14.895Z,96262.41
2022-07-30T15:29:44.428Z,96271.81
2022-07-30T15:32:11.936Z,96272.66
2022-07-30T15:34:39.403Z,96264.13
2022-07-30T15:37:06.887Z,96270.72
2022-07-30T15:39:34.863Z,96286.38
2022-07-30T15:42:03.111Z,96283.81
2022-07-30T15:44:30.944Z,96293.88
2022-07-30T15:46:59.832Z,96288.78
2022-07-30T15:49:27.875Z,96303.22
2022-07-30T15:51:56.081Z,96298.56
2022-07-30T15:54:24.918Z,96284.50
2022-07-30T15:56:54.510Z,96297.88
2022-07-30T15:59:29.332Z,96302.88
2022-07-30T16:01:57.064Z,96299.34
2022-07-30T16:04:31.290Z,96308.25
2022-07-30T16:07:00.197Z,96305.44
2022-07-30T16:09:27.898Z,96308.31
2022-07-30T16:11:55.449Z,96307.94
2022-07-30T16:14:23.304Z,96315.13
2022-07-30T16:16:52.604Z,96311.03
2022-07-30T16:19:20.060Z,96322.53
2022-07-30T16:21:48.860Z,96317.22
2022-07-30T16:24:16.782Z,96305.66
2022-07-30T16:26:44.337Z,96320.53
2022-07-30T16:29:13.873Z,96315.09
2022-07-30T16:31:41.762Z,96318.84
2022-07-30T16:34:09.306Z,96336.75
2022-07-30T16:36:37.016Z,96322.59
2022-07-30T16:39:06.304Z,96323.06
2022-07-30T16:41:33.815Z,96338.53
2022-07-30T16:44:01.310Z,96326.75
2022-07-30T16:46:29.079Z,96333.81
2022-07-30T16:48:56.769Z,96343.00
2022-07-30T16:51:24.313Z,96341.72
2022-07-30T16:53:51.826Z,96341.94
2022-07-30T16:56:20.672Z,96347.38
2022-07-30T16:58:48.166Z,96347.31
2022-07-30T17:01:15.908Z,96344.09
2022-07-30T17:03:43.551Z,96346.88
2022-07-30T17:06:11.044Z,96343.59
2022-07-30T17:08:38.538Z,96348.47
2022-07-30T17:11:08.747Z,96340.44
2022-07-30T17:13:40.286Z,96349.16
2022-07-30T17:16:08.067Z,96356.63
2022-07-30T17:18:35.787Z,96345.44
2022-07-30T17:21:03.661Z,96358.78
2022-07-30T17:23:31.330Z,96359.56
2022-07-30T17:25:58.832Z,96356.63
2022-07-30T17:28:27.191Z,96352.72
2022-07-30T17:30:56.277Z,96347.66
2022-07-30T17:33:23.789Z,96361.41
2022-07-30T17:35:51.373Z,96370.97
2022-07-30T17:38:19.075Z,96357.09
2022-07-30T17:40:46.701Z,96353.09
2022-07-30T17:43:15.422Z,96359.34
2022-07-30T17:45:43.283Z,96361.03
2022-07-30T17:48:12.148Z,96359.19
2022-07-30T17:50:39.794Z,96359.88
2022-07-30T17:53:07.324Z,96361.72
2022-07-30T17:55:35.461Z,96354.00
2022-07-30T17:58:03.304Z,96358.59
2022-07-30T18:00:31.085Z,96364.06
2022-07-30T18:02:58.574Z,96363.00
2022-07-30T18:05:28.083Z,96357.84
2022-07-30T18:07:55.673Z,96355.09
2022-07-30T18:10:23.392Z,96362.84
2022-07-30T18:12:50.931Z,96355.00
2022-07-30T18:15:19.549Z,96360.00
2022-07-30T18:17:47.255Z,96367.41
2022-07-30T18:20:15.746Z,96369.09
2022-07-30T18:22:44.602Z,96370.38
2022-07-30T18:25:18.699Z,96369.78
2022-07-30T18:27:47.375Z,96374.91
2022-07-30T18:30:15.090Z,96364.31
2022-07-30T18:32:42.641Z,96376.97
2022-07-30T18:35:14.012Z,96372.94
2022-07-30T18:37:42.181Z,96380.09
2022-07-30T18:40:12.783Z,96375.06
2022-07-30T18:42:41.014Z,96378.59
2022-07-30T18:45:10.235Z,96373.41
2022-07-30T18:47:37.736Z,96374.19
2022-07-30T18:50:06.004Z,96380.59
2022-07-30T18:52:33.936Z,96385.75
2022-07-30T18:55:01.461Z,96390.56
2022-07-30T18:57:30.343Z,96396.78
2022-07-30T18:59:57.987Z,96389.31
2022-07-30T19:02:26.003Z,96398.66
2022-07-30T19:04:54.139Z,96395.00
2022-07-30T19:07:21.662Z,96399.34
2022-07-30T19:09:49.176Z,96401.13
2022-07-30T19:12:16.776Z,96393.16
2022-07-30T19:14:45.619Z,96413.44
2022-07-30T19:17:13.857Z,96412.50
2022-07-30T19:19:42.865Z,96414.53
2022-07-30T19:22:10.543Z,96411.69
2022-07-30T19:24:38.452Z,96413.41
2022-07-30T19:27:09.838Z,96419.09
2022-07-30T19:29:41.028Z,96415.19
2022-07-30T19:32:09.939Z,96418.59
2022-07-30T19:34:37.599Z,96426.63
2022-07-30T19:37:05.183Z,96417.47
2022-07-30T19:39:35.011Z,96414.94
2022-07-30T19:42:04.033Z,96421.00
2022-07-30T19:44:32.312Z,96428.97
2022-07-30T19:47:00.062Z,96433.75
2022-07-30T19:52:23.555Z,96437.25
2022-07-30T19:54:52.902Z,96436.94
2022-07-30T19:57:20.778Z,96436.88
2022-07-30T20:00:00.198Z,96437.91
2022-07-30T20:02:35.492Z,96432.31
2022-07-30T20:05:06.250Z,96431.63
2022-07-30T20:07:39.227Z,96437.28
2022-07-30T20:10:07.924Z,96438.09
2022-07-30T20:12:35.439Z,96442.59
2022-07-30T20:15:02.996Z,96435.50
2022-07-30T20:17:31.067Z,96442.38
2022-07-30T20:20:04.605Z,96441.38
2022-07-30T20:22:33.956Z,96445.56
2022-07-30T20:25:01.488Z,96439.91
2022-07-30T20:27:38.396Z,96444.59
2022-07-30T20:30:07.924Z,96446.78
2022-07-30T20:32:35.632Z,96438.53
2022-07-30T20:35:05.909Z,96453.88
2022-07-30T20:37:33.410Z,96447.72
2022-07-30T20:40:21.235Z,96447.09
2022-07-30T20:42:50.635Z,96445.22
2022-07-30T20:45:18.185Z,96452.28
2022-07-30T20:48:08.326Z,96446.34
2022-07-30T20:50:46.470Z,96450.88
2022-07-30T20:53:16.968Z,96449.41
2022-07-30T20:55:44.506Z,96450.28
2022-07-30T20:58:16.743Z,96451.13
2022-07-30T21:00:49.805Z,96451.13
2022-07-30T21:03:18.841Z,96447.41
2022-07-30T21:05:52.479Z,96456.50
2022-07-30T21:08:20.333Z,96455.22
2022-07-30T21:10:47.822Z,96457.66
2022-07-30T21:13:15.545Z,96465.56
2022-07-30T21:16:02.560Z,96462.50
2022-07-30T21:18:30.818Z,96464.78
2022-07-30T21:21:00.520Z,96468.94
2022-07-30T21:23:28.450Z,96464.56
2022-07-30T21:26:00.543Z,96469.31
2022-07-30T21:31:18.164Z,96462.28
2022-07-30T21:33:45.857Z,96461.41
2022-07-30T21:36:15.017Z,96460.97
2022-07-30T21:38:42.906Z,96456.03
2022-07-30T21:41:14.353Z,96462.88
2022-07-30T21:43:43.257Z,96468.44
2022-07-30T21:46:10.982Z,96459.75
2022-07-30T21:48:39.670Z,96456.03
2022-07-30T21:51:08.472Z,96451.91
2022-07-30T21:53:45.950Z,96458.09
2022-07-30T21:56:15.060Z,96465.09
2022-07-30T21:58:43.870Z,96460.50
2022-07-30T22:01:17.382Z,96467.47
2022-07-30T22:04:04.649Z,96461.50
2022-07-30T22:06:34.099Z,96459.22
2022-07-30T22:09:08.573Z,96464.59
2022-07-30T22:11:46.192Z,96465.84
2022-07-30T22:14:14.163Z,96464.41
2022-07-30T22:16:45.857Z,96469.53
2022-07-30T22:19:14.435Z,96468.72
2022-07-30T22:21:42.189Z,96467.44
2022-07-30T22:24:11.012Z,96468.06
2022-07-30T22:26:57.634Z,96466.19
2022-07-30T22:29:34.563Z,96467.78
2022-07-30T22:32:03.538Z,96464.09
2022-07-30T22:34:31.470Z,96464.25
2022-07-30T22:36:58.979Z,96472.31
2022-07-30T22:39:31.772Z,96459.47
2022-07-30T22:42:15.961Z,96470.19
2022-07-30T22:44:46.003Z,96469.31
2022-07-30T22:47:21.358Z,96466.88
2022-07-30T22:50:02.810Z,96468.50
2022-07-30T22:52:31.009Z,96477.38
2022-07-30T22:55:08.690Z,96471.09
2022-07-30T22:57:38.386Z,96473.78
2022-07-30T23:00:11.414Z,96470.03
2022-07-30T23:02:39.523Z,96470.06
2022-07-30T23:05:07.713Z,96468.81
2022-07-30T23:07:39.450Z,96466.81
2022-07-30T23:10:18.230Z,96467.38
2022-07-30T23:12:15.154Z,96434.19
2022-07-30T23:12:31.315Z,96461.25
2022-07-30T23:12:48.671Z,96463.66
2022-07-30T23:15:16.483Z,96471.25
2022-07-30T23:17:44.346Z,96469.59
2022-07-30T23:20:15.232Z,96472.03
2022-07-30T23:22:42.738Z,96472.81
2022-07-30T23:25:12.558Z,96481.28
2022-07-30T23:27:41.033Z,96470.72
2022-07-30T23:30:11.145Z,96474.88
2022-07-30T23:32:39.805Z,96469.50
2022-07-30T23:35:08.699Z,96463.66
2022-07-30T23:37:47.902Z,96470.50
2022-07-30T23:40:19.213Z,96468.63
2022-07-30T23:42:47.027Z,96469.66
2022-07-30T23:45:14.535Z,96469.22
2022-07-30T23:47:51.289Z,96468.97
2022-07-30T23:50:30.280Z,96470.19
2022-07-30T23:52:57.817Z,96475.75
2022-07-30T23:55:27.006Z,96470.53
2022-07-30T23:57:54.572Z,96469.72
